createdAt,value
2019-05-15T00:10:08.780Z,6.77
2019-05-15T00:12:39.757Z,6.69
2019-05-15T00:15:48.519Z,6.62
2019-05-15T00:21:28.637Z,6.48
2019-05-15T00:23:58.790Z,6.41
2019-05-15T00:26:30.076Z,6.38
2019-05-15T00:31:55.978Z,6.24
2019-05-15T00:34:25.667Z,6.14
2019-05-15T00:36:58.298Z,6.08
2019-05-15T00:39:28.432Z,6.03
2019-05-15T00:41:59.092Z,5.95
2019-05-15T00:44:30.679Z,5.87
2019-05-15T00:47:02.059Z,5.81
2019-05-15T00:49:31.435Z,5.77
2019-05-15T00:54:56.346Z,5.71
2019-05-15T00:57:28.357Z,5.64
2019-05-15T00:59:59.571Z,5.60
2019-05-15T01:03:08.905Z,5.57
2019-05-15T01:08:58.972Z,5.45
2019-05-15T01:11:28.817Z,5.42
2019-05-15T01:13:58.649Z,5.38
2019-05-15T01:16:30.516Z,5.33
2019-05-15T01:22:08.578Z,5.27
2019-05-15T01:24:38.973Z,5.27
2019-05-15T01:27:48.980Z,5.21
2019-05-15T01:33:32.379Z,5.13
2019-05-15T01:36:02.267Z,5.09
2019-05-15T01:38:50.583Z,5.05
2019-05-15T01:41:20.011Z,5.02
2019-05-15T01:43:49.821Z,5.00
2019-05-15T01:49:15.050Z,4.98
2019-05-15T01:54:53.300Z,4.91
2019-05-15T02:00:38.860Z,4.86
2019-05-15T02:06:22.922Z,4.83
2019-05-15T02:12:08.707Z,4.77
2019-05-15T02:17:42.568Z,4.80
2019-05-15T02:23:33.630Z,4.82
2019-05-15T02:26:34.399Z,4.82
2019-05-15T02:29:04.042Z,4.82
2019-05-15T02:31:33.513Z,4.83
2019-05-15T02:34:03.163Z,4.85
2019-05-15T02:36:33.035Z,4.85
2019-05-15T02:44:29.129Z,4.90
2019-05-15T02:46:59.735Z,4.88
2019-05-15T02:52:44.136Z,4.90
2019-05-15T02:58:25.598Z,4.93
2019-05-15T03:00:55.037Z,4.97
2019-05-15T03:03:24.633Z,5.00
2019-05-15T03:05:54.252Z,5.02
2019-05-15T03:08:23.641Z,4.99
2019-05-15T03:11:32.532Z,5.03
2019-05-15T03:19:49.860Z,5.02
2019-05-15T03:22:19.611Z,5.02
2019-05-15T03:33:29.728Z,5.16
2019-05-15T03:36:02.794Z,5.19
2019-05-15T03:39:09.673Z,5.24
2019-05-15T03:41:59.224Z,5.28
2019-05-15T03:44:28.936Z,5.36
2019-05-15T03:47:00.003Z,5.41
2019-05-15T03:49:29.594Z,5.50
2019-05-15T03:58:21.535Z,5.69
2019-05-15T04:00:50.165Z,5.75
2019-05-15T04:03:20.369Z,5.81
2019-05-15T04:06:01.788Z,5.89
2019-05-15T04:11:59.810Z,5.98
2019-05-15T04:14:29.721Z,5.99
2019-05-15T04:17:40.940Z,6.00
2019-05-15T04:32:30.088Z,6.28
2019-05-15T04:34:59.699Z,6.35
2019-05-15T04:37:31.091Z,6.49
2019-05-15T04:40:20.391Z,6.62
2019-05-15T04:49:24.536Z,8.17
2019-05-15T04:55:03.086Z,13.69
2019-05-15T05:01:00.834Z,14.74
2019-05-15T05:03:34.099Z,14.75
2019-05-15T05:06:03.607Z,14.26
2019-05-15T05:14:30.442Z,10.44
2019-05-15T05:17:00.004Z,9.94
2019-05-15T05:19:29.551Z,9.82
2019-05-15T05:21:58.978Z,9.87
2019-05-15T05:27:38.571Z,9.83
2019-05-15T05:30:09.971Z,9.91
2019-05-15T05:33:18.856Z,9.92
2019-05-15T05:35:48.991Z,9.92
2019-05-15T05:38:59.292Z,9.72
2019-05-15T05:44:44.625Z,9.70
2019-05-15T05:47:14.510Z,9.62
2019-05-15T05:49:44.598Z,8.73
2019-05-15T05:52:53.488Z,9.88
2019-05-15T05:55:23.017Z,10.19
2019-05-15T05:57:52.479Z,10.35
2019-05-15T06:01:01.703Z,10.53
2019-05-15T06:03:31.211Z,10.28
2019-05-15T06:06:40.090Z,10.26
2019-05-15T06:09:28.963Z,10.40
2019-05-15T06:12:09.405Z,10.40
2019-05-15T06:14:38.868Z,10.39
2019-05-15T06:17:48.174Z,10.43
2019-05-15T06:20:19.352Z,10.65
2019-05-15T06:22:48.864Z,10.54
2019-05-15T06:25:19.770Z,10.56
2019-05-15T06:31:14.775Z,10.91
2019-05-15T06:33:44.440Z,11.04
2019-05-15T06:36:13.934Z,11.22
2019-05-15T06:39:23.429Z,11.11
2019-05-15T06:44:54.778Z,10.82
2019-05-15T06:51:18.178Z,10.61
2019-05-15T06:53:49.396Z,10.77
2019-05-15T06:56:19.424Z,10.89
2019-05-15T07:02:13.898Z,11.32
2019-05-15T07:07:22.480Z,11.35
2019-05-15T07:12:40.433Z,10.92
2019-05-15T07:15:49.841Z,11.26
2019-05-15T07:18:20.406Z,11.41
2019-05-15T07:20:50.153Z,11.37
2019-05-15T07:23:58.954Z,11.50
2019-05-15T07:26:29.116Z,12.02
2019-05-15T07:28:59.771Z,12.66
2019-05-15T07:31:31.210Z,12.95
2019-05-15T07:34:00.663Z,13.24
2019-05-15T07:36:30.170Z,13.53
2019-05-15T07:39:38.840Z,13.83
2019-05-15T07:42:08.690Z,13.98
2019-05-15T07:44:39.988Z,13.87
2019-05-15T07:47:09.704Z,14.10
2019-05-15T07:52:53.436Z,14.39
2019-05-15T07:55:23.074Z,14.40
2019-05-15T07:58:31.817Z,14.68
2019-05-15T08:01:05.329Z,14.87
2019-05-15T08:03:34.093Z,15.29
2019-05-15T08:06:03.486Z,15.45
2019-05-15T08:09:12.469Z,15.28
2019-05-15T08:12:21.395Z,14.58
2019-05-15T08:14:51.961Z,14.53
2019-05-15T08:17:22.171Z,14.69
2019-05-15T08:20:30.930Z,14.72
2019-05-15T08:23:00.346Z,14.93
2019-05-15T08:25:35.169Z,15.57
2019-05-15T08:30:58.357Z,15.61
2019-05-15T08:33:28.177Z,15.74
2019-05-15T08:36:00.262Z,15.90
2019-05-15T08:38:29.706Z,16.10
2019-05-15T08:40:59.727Z,16.24
2019-05-15T08:44:08.837Z,16.47
2019-05-15T08:46:40.110Z,16.04
2019-05-15T08:49:49.106Z,16.52
2019-05-15T08:52:19.636Z,16.71
2019-05-15T08:54:49.183Z,16.81
2019-05-15T08:57:20.334Z,16.70
2019-05-15T08:59:50.452Z,16.22
2019-05-15T09:02:20.253Z,16.11
2019-05-15T09:04:49.667Z,15.50
2019-05-15T09:07:19.178Z,15.75
2019-05-15T09:09:48.857Z,16.15
2019-05-15T09:12:21.345Z,16.15
2019-05-15T09:18:12.313Z,16.40
2019-05-15T09:20:38.385Z,16.82
2019-05-15T09:23:09.079Z,16.69
2019-05-15T09:25:40.360Z,16.59
2019-05-15T09:28:10.047Z,16.46
2019-05-15T09:30:39.619Z,16.03
2019-05-15T09:36:24.721Z,16.43
2019-05-15T09:42:02.927Z,16.00
2019-05-15T09:44:32.708Z,15.51
2019-05-15T09:47:02.308Z,15.55
2019-05-15T09:49:31.975Z,15.69
2019-05-15T09:52:01.425Z,15.53
2019-05-15T09:57:29.996Z,15.81
2019-05-15T10:02:59.935Z,15.26
2019-05-15T10:06:08.602Z,15.60
2019-05-15T10:09:18.879Z,16.00
2019-05-15T10:11:52.095Z,16.92
2019-05-15T10:14:21.724Z,17.48
2019-05-15T10:20:18.399Z,17.59
2019-05-15T10:26:02.598Z,17.30
2019-05-15T10:28:32.110Z,17.83
2019-05-15T10:33:58.295Z,17.94
2019-05-15T10:36:28.768Z,17.41
2019-05-15T10:38:59.207Z,17.53
2019-05-15T10:41:30.022Z,16.74
2019-05-15T10:44:00.405Z,16.94
2019-05-15T10:46:31.455Z,17.64
2019-05-15T10:49:02.994Z,18.46
2019-05-15T10:52:11.910Z,18.87
2019-05-15T10:57:41.717Z,17.74
2019-05-15T11:03:10.103Z,17.05
2019-05-15T11:08:51.602Z,16.91
2019-05-15T11:11:21.431Z,16.55
2019-05-15T11:13:51.044Z,16.41
2019-05-15T11:16:21.232Z,16.32
2019-05-15T11:18:53.608Z,16.41
2019-05-15T11:22:03.193Z,16.48
2019-05-15T11:24:33.595Z,16.56
2019-05-15T11:27:03.033Z,16.42
2019-05-15T11:29:32.875Z,16.68
2019-05-15T11:32:41.665Z,16.87
2019-05-15T11:36:01.080Z,16.89
2019-05-15T11:41:38.631Z,17.01
2019-05-15T11:44:09.117Z,17.07
2019-05-15T11:47:18.420Z,17.02
2019-05-15T11:55:52.793Z,16.99
2019-05-15T11:58:22.260Z,16.68
2019-05-15T12:01:10.849Z,17.17
2019-05-15T12:06:42.243Z,16.93
2019-05-15T12:09:11.672Z,17.02
2019-05-15T12:12:21.362Z,17.71
2019-05-15T12:14:51.236Z,17.23
2019-05-15T12:17:20.633Z,16.84
2019-05-15T12:20:05.423Z,16.61
2019-05-15T12:25:32.018Z,16.59
2019-05-15T12:31:04.126Z,16.59
2019-05-15T12:34:12.768Z,16.78
2019-05-15T13:03:03.193Z,16.99
2019-05-15T13:05:32.762Z,17.03
2019-05-15T13:08:02.279Z,17.61
2019-05-15T13:10:31.639Z,18.05
2019-05-15T13:13:40.727Z,18.92
2019-05-15T13:19:12.669Z,19.22
2019-05-15T13:21:42.067Z,19.40
2019-05-15T13:24:11.462Z,19.66
2019-05-15T13:27:20.182Z,19.33
2019-05-15T13:30:20.015Z,18.87
2019-05-15T13:32:50.053Z,18.71
2019-05-15T13:38:22.501Z,17.77
2019-05-15T13:40:51.937Z,17.76
2019-05-15T13:46:20.599Z,17.58
2019-05-15T13:48:49.343Z,17.37
2019-05-15T13:51:18.753Z,18.05
2019-05-15T13:57:23.394Z,17.72
2019-05-15T13:59:52.910Z,17.57
2019-05-15T14:02:22.404Z,17.97
2019-05-15T14:05:31.294Z,18.03
2019-05-15T14:08:19.809Z,17.74
2019-05-15T14:13:51.209Z,18.46
2019-05-15T14:16:59.860Z,19.15
2019-05-15T14:20:09.336Z,19.27
2019-05-15T14:22:40.271Z,20.40
2019-05-15T14:25:49.207Z,20.33
2019-05-15T14:28:38.907Z,20.32
2019-05-15T14:31:20.160Z,21.44
2019-05-15T14:36:55.642Z,21.58
2019-05-15T14:39:25.312Z,21.72
2019-05-15T14:41:54.768Z,22.62
2019-05-15T14:44:24.262Z,22.58
2019-05-15T14:46:55.159Z,22.99
2019-05-15T14:52:21.154Z,22.97
2019-05-15T14:57:59.993Z,22.05
2019-05-15T15:00:34.904Z,21.53
2019-05-15T15:03:03.633Z,21.62
2019-05-15T15:05:35.255Z,21.96
2019-05-15T15:11:00.724Z,21.96
2019-05-15T15:13:32.471Z,21.75
2019-05-15T15:16:01.840Z,20.02
2019-05-15T15:18:31.466Z,19.61
2019-05-15T15:21:13.819Z,19.41
2019-05-15T15:23:43.304Z,19.67
2019-05-15T15:26:12.909Z,19.91
2019-05-15T15:29:21.411Z,19.99
2019-05-15T15:31:52.665Z,19.76
2019-05-15T15:34:22.143Z,19.11
2019-05-15T15:36:51.620Z,17.82
2019-05-15T15:39:21.082Z,17.09
2019-05-15T15:42:30.180Z,16.78
2019-05-15T15:45:01.565Z,16.71
2019-05-15T15:56:11.010Z,15.76
2019-05-15T15:58:40.386Z,15.66
2019-05-15T16:01:31.455Z,15.49
2019-05-15T16:04:01.418Z,15.46
2019-05-15T16:07:10.272Z,15.40
2019-05-15T16:09:39.744Z,15.31
2019-05-15T16:12:10.844Z,15.21
2019-05-15T16:14:40.429Z,15.27
2019-05-15T16:17:09.797Z,15.30
2019-05-15T16:19:39.382Z,15.39
2019-05-15T16:22:09.093Z,15.29
2019-05-15T16:24:38.732Z,15.23
2019-05-15T16:27:09.963Z,15.27
2019-05-15T16:29:39.860Z,15.25
2019-05-15T16:32:09.249Z,15.19
2019-05-15T16:37:34.952Z,15.28
2019-05-15T16:43:20.120Z,15.12
2019-05-15T16:45:52.271Z,15.22
2019-05-15T16:48:33.724Z,15.32
2019-05-15T16:51:03.181Z,15.37
2019-05-15T16:56:28.460Z,15.14
2019-05-15T16:58:59.860Z,15.07
2019-05-15T17:01:31.277Z,15.09
2019-05-15T17:04:02.808Z,15.05
2019-05-15T17:09:28.814Z,15.13
2019-05-15T17:18:18.202Z,15.10
2019-05-15T17:20:48.436Z,14.90
2019-05-15T17:23:20.038Z,14.86
2019-05-15T17:25:49.384Z,14.89
2019-05-15T17:31:14.022Z,14.69
2019-05-15T17:33:43.624Z,14.66
2019-05-15T17:36:13.149Z,14.63
2019-05-15T17:41:39.309Z,14.54
2019-05-15T17:44:08.909Z,14.56
2019-05-15T17:46:40.995Z,14.52
2019-05-15T17:49:15.243Z,14.56
2019-05-15T17:51:41.622Z,14.57
2019-05-15T17:54:11.184Z,14.55
2019-05-15T17:57:20.043Z,14.53
2019-05-15T18:02:45.537Z,14.45
2019-05-15T18:09:04.036Z,14.32
2019-05-15T18:14:13.837Z,14.19
2019-05-15T18:16:43.714Z,14.17
2019-05-15T18:19:15.415Z,14.13
2019-05-15T18:21:45.029Z,14.28
2019-05-15T18:27:18.535Z,14.13
2019-05-15T18:32:58.714Z,13.97
2019-05-15T18:35:29.502Z,13.89
2019-05-15T18:38:01.391Z,13.86
2019-05-15T18:40:30.877Z,13.80
2019-05-15T18:46:00.890Z,13.73
2019-05-15T18:48:30.388Z,13.73
2019-05-15T18:50:59.762Z,13.69
2019-05-15T18:56:25.372Z,13.62
2019-05-15T18:58:54.976Z,13.57
2019-05-15T19:01:24.540Z,13.50
2019-05-15T19:03:54.054Z,13.43
2019-05-15T19:06:25.197Z,13.40
2019-05-15T19:08:54.799Z,13.35
2019-05-15T19:11:24.322Z,13.28
2019-05-15T19:13:58.714Z,13.18
2019-05-15T19:19:18.444Z,13.05
2019-05-15T19:24:51.383Z,12.88
2019-05-15T19:30:29.579Z,12.68
2019-05-15T19:33:01.236Z,12.60
2019-05-15T19:35:49.783Z,12.46
2019-05-15T19:38:19.357Z,12.38
2019-05-15T19:40:48.823Z,12.31
2019-05-15T19:43:58.173Z,12.25
2019-05-15T19:46:31.222Z,12.17
2019-05-15T19:51:58.736Z,11.98
2019-05-15T19:57:39.028Z,11.85
2019-05-15T20:00:09.067Z,11.79
2019-05-15T20:02:38.612Z,11.73
2019-05-15T20:05:48.626Z,11.63
2019-05-15T20:08:19.159Z,11.60
2019-05-15T20:10:48.877Z,11.51
2019-05-15T20:13:18.523Z,11.49
2019-05-15T20:15:48.629Z,11.48
2019-05-15T20:18:19.282Z,11.39
2019-05-15T20:20:49.136Z,11.31
2019-05-15T20:26:33.864Z,11.15
2019-05-15T20:29:22.388Z,11.04
2019-05-15T20:32:31.337Z,10.98
2019-05-15T20:35:00.982Z,10.91
2019-05-15T20:40:26.217Z,10.86
2019-05-15T20:42:55.581Z,10.84
2019-05-15T20:48:53.475Z,10.76
2019-05-15T20:54:18.336Z,10.73
2019-05-15T20:56:49.020Z,10.65
2019-05-15T20:59:19.075Z,10.64
2019-05-15T21:02:09.614Z,10.38
2019-05-15T21:07:39.153Z,9.70
2019-05-15T21:16:18.788Z,10.18
2019-05-15T21:21:58.358Z,10.11
2019-05-15T21:25:08.092Z,10.12
2019-05-15T21:27:49.584Z,10.11
2019-05-15T21:41:40.695Z,9.92
2019-05-15T21:44:10.300Z,9.86
2019-05-15T21:47:19.032Z,9.84
2019-05-15T21:49:50.480Z,9.80
2019-05-15T21:52:20.632Z,9.70
2019-05-15T21:54:51.101Z,9.65
2019-05-15T21:57:32.929Z,9.63
2019-05-15T22:05:48.814Z,9.41
2019-05-15T22:11:33.209Z,9.37
2019-05-15T22:14:02.644Z,9.37
2019-05-15T22:17:11.497Z,9.44
2019-05-15T22:19:49.092Z,9.45
2019-05-15T22:22:19.367Z,9.37
2019-05-15T22:24:48.803Z,9.38
2019-05-15T22:27:21.033Z,9.36
2019-05-15T22:32:45.243Z,9.36
2019-05-15T22:35:53.915Z,9.30
2019-05-15T22:38:23.399Z,9.22
2019-05-15T22:40:52.826Z,9.19
2019-05-15T22:44:01.703Z,9.21
2019-05-15T22:49:45.809Z,9.28
2019-05-15T22:52:15.333Z,9.32
2019-05-15T22:57:48.382Z,9.29
2019-05-15T23:03:21.622Z,9.30
2019-05-15T23:05:50.930Z,9.26
2019-05-15T23:08:59.749Z,9.28
2019-05-15T23:14:32.013Z,9.25
2019-05-15T23:17:01.490Z,9.23
2019-05-15T23:19:31.186Z,9.23
2019-05-15T23:22:00.666Z,9.22
2019-05-15T23:25:09.374Z,9.22
2019-05-15T23:28:18.275Z,9.21
2019-05-15T23:30:48.618Z,9.15
2019-05-15T23:36:13.895Z,9.09
2019-05-15T23:38:43.619Z,9.02
2019-05-15T23:41:52.383Z,8.96
2019-05-15T23:47:38.464Z,8.84
2019-05-15T23:53:08.833Z,8.68
2019-05-15T23:55:38.310Z,8.64
2019-05-15T23:58:47.460Z,8.56
